Time;durP1;ratioP1;P1;durP2;ratioP2;P2;SDS_P1;SDS_P2;PMS_P1;PMS_P2;Temp;Humidity;BMP_temperature;BMP_pressure;BME280_temperature;BME280_humidity;BME280_pressure;Samples;Min_cycle;Max_cycle;Signal;HPM_P1;HPM_P2
2021/04/26 00:03:04;;;;;;;3.58;2.90;;;;;;;23.90;33.85;94862.19;5213007;23;20062;-75
2021/04/26 00:06:23;;;;;;;4.00;2.83;;;;;;;24.09;34.12;94907.31;4974592;28;20568;-74
2021/04/26 04:35:28;;;;;;;3.70;2.70;;;;;;;23.65;36.48;95048.19;4997606;27;20387;-77
2021/04/26 04:37:54;;;;;;;4.22;2.55;;;;;;;23.51;36.06;95000.19;4997208;28;20037;-82
2021/04/26 04:40:19;;;;;;;8.13;2.72;;;;;;;23.62;35.47;95021.91;5047325;28;20036;-82
2021/04/26 04:42:44;;;;;;;4.03;2.40;;;;;;;23.92;35.55;95062.28;5032044;28;20022;-80
2021/04/26 04:45:11;;;;;;;3.92;2.80;;;;;;;24.09;35.47;95060.09;5043288;28;20013;-81
2021/04/26 04:47:36;;;;;;;5.22;2.72;;;;;;;24.18;35.17;95057.03;5046451;28;20100;-76
2021/04/26 04:50:02;;;;;;;4.45;2.70;;;;;;;24.20;35.69;95049.09;5045214;28;20025;-81
2021/04/26 04:52:28;;;;;;;4.20;2.40;;;;;;;24.32;35.09;95049.69;5044696;28;20115;-75
2021/04/26 04:54:53;;;;;;;4.53;2.78;;;;;;;24.26;34.98;95013.53;5025814;28;20488;-77
2021/04/26 04:57:18;;;;;;;3.50;2.70;;;;;;;24.48;34.60;95041.31;5026694;28;20037;-76
2021/04/26 04:59:44;;;;;;;6.75;3.75;;;;;;;24.67;34.26;95061.19;5044366;28;20919;-77
2021/04/26 05:02:09;;;;;;;2.83;2.53;;;;;;;24.79;34.17;95065.25;5044551;28;20037;-76
2021/04/26 05:04:35;;;;;;;4.70;3.00;;;;;;;24.87;33.86;95056.69;5042818;28;20036;-74
2021/04/26 05:07:00;;;;;;;5.55;2.70;;;;;;;24.92;34.18;95053.13;5041865;28;20029;-76
2021/04/26 05:09:26;;;;;;;3.80;2.75;;;;;;;25.05;34.15;95055.97;5041750;28;20059;-76
2021/04/26 05:11:51;;;;;;;5.50;3.08;;;;;;;25.16;33.84;95055.78;5044584;28;20021;-73
2021/04/26 05:14:17;;;;;;;3.97;2.70;;;;;;;25.28;33.54;95062.56;5044305;28;20021;-75
2021/04/26 05:16:46;;;;;;;4.28;2.97;;;;;;;25.31;33.42;95061.53;5044476;28;20056;-75
2021/04/26 05:19:12;;;;;;;4.80;2.85;;;;;;;25.40;33.74;95069.34;5038571;28;20573;-77
2021/04/26 05:21:38;;;;;;;4.38;2.83;;;;;;;25.01;33.04;95011.81;5043333;28;20140;-76
2021/04/26 05:24:04;;;;;;;5.05;3.05;;;;;;;25.55;32.83;95075.06;5058585;28;20025;-83
2021/04/26 05:26:29;;;;;;;5.45;2.60;;;;;;;25.30;33.08;95043.63;5044825;28;20055;-86
2021/04/26 05:28:55;;;;;;;3.80;2.92;;;;;;;25.31;34.99;95045.13;5042784;28;20021;-78
2021/04/26 05:31:20;;;;;;;4.85;3.00;;;;;;;25.60;34.11;95076.97;5041707;28;20032;-77
2021/04/26 05:33:46;;;;;;;3.83;2.55;;;;;;;25.70;34.99;95069.88;5043094;28;20054;-77
2021/04/26 05:36:12;;;;;;;4.85;3.10;;;;;;;25.50;34.21;95018.44;5035350;28;20059;-76
2021/04/26 05:38:37;;;;;;;5.20;3.08;;;;;;;25.80;34.66;95058.72;5030902;28;20028;-72
2021/04/26 05:41:03;;;;;;;5.18;2.88;;;;;;;25.63;34.97;94993.88;5043300;28;20021;-77
2021/04/26 05:43:28;;;;;;;2.95;2.35;;;;;;;25.88;35.12;95053.38;5043986;28;20025;-73
2021/04/26 05:45:53;;;;;;;4.10;2.60;;;;;;;25.67;34.73;95027.88;5035802;28;20025;-75
2021/04/26 05:48:19;;;;;;;3.80;2.65;;;;;;;25.67;34.91;95021.69;5025246;28;20033;-76
2021/04/26 05:50:45;;;;;;;5.72;3.00;;;;;;;25.56;34.66;94999.94;5029528;28;20024;-82
2021/04/26 05:53:10;;;;;;;5.25;2.97;;;;;;;25.69;34.57;95024.63;5028524;28;20175;-81
2021/04/26 05:55:35;;;;;;;6.00;4.03;;;;;;;25.75;32.45;95063.56;5025396;28;20022;-80
2021/04/26 05:58:01;;;;;;;6.50;3.63;;;;;;;25.51;34.11;95025.41;5029674;28;20025;-78
2021/04/26 06:00:27;;;;;;;5.65;2.90;;;;;;;25.78;33.50;95043.38;5013144;28;20079;-78
2021/04/26 06:02:52;;;;;;;4.35;3.10;;;;;;;25.59;33.42;95013.34;5029127;28;20026;-79
2021/04/26 06:05:18;;;;;;;4.82;3.13;;;;;;;25.97;33.54;95045.50;5012862;28;20017;-79
2021/04/26 06:07:45;;;;;;;5.30;3.35;;;;;;;26.01;33.21;95051.41;5007957;28;20041;-78
2021/04/26 06:10:11;;;;;;;4.68;2.97;;;;;;;25.74;33.03;95016.31;5020693;28;20022;-77
2021/04/26 06:12:36;;;;;;;4.55;2.95;;;;;;;25.96;32.40;95021.38;5027621;28;20031;-77
2021/04/26 06:15:02;;;;;;;7.82;3.75;;;;;;;25.72;31.77;95018.09;5043275;28;20025;-82
2021/04/26 06:17:28;;;;;;;6.30;3.30;;;;;;;26.01;32.32;95040.44;5028161;28;20064;-77
2021/04/26 06:19:53;;;;;;;6.40;3.60;;;;;;;25.93;32.07;95034.13;5028236;28;20036;-77
2021/04/26 06:22:19;;;;;;;6.80;4.03;;;;;;;25.79;32.38;95029.88;5030465;28;20033;-80
2021/04/26 06:24:44;;;;;;;4.80;3.17;;;;;;;26.01;32.37;95045.19;5028183;28;20071;-73
2021/04/26 06:27:10;;;;;;;5.50;3.22;;;;;;;26.18;31.75;95049.06;5029823;28;20017;-73
2021/04/26 06:29:35;;;;;;;5.00;3.25;;;;;;;26.22;32.08;95054.97;5029796;28;20115;-76
2021/04/26 06:32:00;;;;;;;5.38;3.03;;;;;;;26.26;32.06;95038.94;5045433;28;20041;-75
2021/04/26 06:34:26;;;;;;;4.95;2.90;;;;;;;26.38;32.02;95051.19;5028632;28;20053;-73
2021/04/26 06:36:52;;;;;;;5.13;3.50;;;;;;;26.43;31.70;95047.63;5028157;28;20032;-74
2021/04/26 06:39:17;;;;;;;4.80;3.10;;;;;;;26.44;31.53;95049.06;5029200;28;20033;-76
2021/04/26 06:41:43;;;;;;;4.93;2.95;;;;;;;26.51;31.35;95048.44;5029307;28;20496;-75
2021/04/26 06:44:08;;;;;;;4.63;3.00;;;;;;;26.50;31.67;95052.44;5044845;28;20022;-73
2021/04/26 06:46:34;;;;;;;5.03;3.05;;;;;;;26.60;31.85;95046.00;5029842;28;20053;-75
2021/04/26 06:49:00;;;;;;;4.35;2.90;;;;;;;26.51;31.54;95037.50;5028852;28;20087;-76
2021/04/26 06:51:25;;;;;;;5.47;3.08;;;;;;;26.55;31.38;95018.75;5028306;28;20032;-77
2021/04/26 06:53:51;;;;;;;4.82;3.00;;;;;;;26.57;31.50;95029.91;5011718;28;20025;-78
2021/04/26 06:56:16;;;;;;;4.55;2.85;;;;;;;26.23;31.18;94977.03;5012404;28;20466;-79
2021/04/26 06:58:42;;;;;;;5.05;3.42;;;;;;;26.42;31.47;94992.09;5029012;28;20059;-81
2021/04/26 07:01:07;;;;;;;5.50;3.25;;;;;;;26.68;31.18;95024.19;5005329;28;20436;-78
2021/04/26 07:03:33;;;;;;;4.45;3.00;;;;;;;26.78;31.09;95029.41;5025657;28;20488;-78
2021/04/26 07:05:58;;;;;;;4.68;2.83;;;;;;;26.68;31.08;95035.88;5019431;28;20021;-78
2021/04/26 07:08:24;;;;;;;4.90;3.15;;;;;;;26.25;30.67;95015.59;5014497;28;20053;-83
2021/04/26 07:10:50;;;;;;;4.60;3.00;;;;;;;26.27;31.03;94991.16;4997605;28;20085;-76
2021/04/26 07:13:16;;;;;;;5.25;2.85;;;;;;;26.65;31.45;95030.72;5027390;28;20420;-74
2021/04/26 07:15:41;;;;;;;4.53;3.30;;;;;;;26.64;31.09;95029.25;5026436;28;20563;-76
2021/04/26 07:18:07;;;;;;;3.90;2.95;;;;;;;26.62;30.75;95029.03;5014744;28;20041;-74
2021/04/26 07:20:32;;;;;;;5.20;3.22;;;;;;;26.55;30.66;95026.97;5028023;28;20021;-74
2021/04/26 07:22:57;;;;;;;4.78;3.00;;;;;;;26.66;30.55;95043.88;5025675;28;20033;-74
2021/04/26 07:25:23;;;;;;;4.82;2.95;;;;;;;26.70;30.18;95049.06;5015172;28;20017;-74
2021/04/26 07:27:48;;;;;;;7.25;3.25;;;;;;;26.66;30.29;95043.88;5026342;28;20402;-74
2021/04/26 07:30:15;;;;;;;6.65;3.45;;;;;;;26.69;30.25;95047.56;5028084;28;20028;-75
2021/04/26 07:32:44;;;;;;;4.00;2.92;;;;;;;26.60;29.71;95026.09;5027541;28;20108;-73
2021/04/26 07:35:12;;;;;;;5.35;3.40;;;;;;;26.67;29.87;95044.63;5026431;28;20056;-74
2021/04/26 07:37:38;;;;;;;6.15;3.38;;;;;;;26.70;29.93;95049.06;5028052;28;20039;-74
2021/04/26 07:40:05;;;;;;;4.53;3.25;;;;;;;26.51;29.95;95021.06;5027409;28;20064;-74
2021/04/26 07:42:31;;;;;;;5.47;3.08;;;;;;;26.45;29.90;95006.75;5025953;28;20040;-74
2021/04/26 07:44:56;;;;;;;5.88;3.10;;;;;;;26.66;30.18;95032.19;5023205;28;20432;-74
2021/04/26 07:47:22;;;;;;;4.85;3.20;;;;;;;26.75;29.74;95040.69;5026631;28;20025;-75
2021/04/26 07:49:47;;;;;;;5.00;3.17;;;;;;;26.76;30.07;95042.19;5025189;28;20033;-74
2021/04/26 07:52:12;;;;;;;5.15;3.10;;;;;;;26.66;29.83;95021.25;5028442;28;20021;-73
2021/04/26 07:54:38;;;;;;;4.80;2.83;;;;;;;26.77;29.80;95022.47;5041131;28;20488;-74
2021/04/26 07:57:06;;;;;;;4.85;3.28;;;;;;;26.85;30.34;95026.03;5026950;28;20021;-74
2021/04/26 07:59:31;;;;;;;5.15;3.30;;;;;;;26.91;30.04;95025.94;5001741;28;20520;-73
2021/04/26 08:01:57;;;;;;;5.60;3.13;;;;;;;26.89;30.14;95007.28;5041871;28;20037;-74
2021/04/26 08:04:22;;;;;;;6.38;3.05;;;;;;;26.97;30.00;95013.56;5041147;28;20017;-74
2021/04/26 08:06:48;;;;;;;10.38;3.42;;;;;;;26.97;29.80;95013.56;5025209;28;20111;-73
2021/04/26 08:09:13;;;;;;;13.50;4.35;;;;;;;26.92;30.22;95014.44;5026033;28;20183;-74
2021/04/26 08:11:39;;;;;;;10.57;3.40;;;;;;;26.94;30.12;95013.91;5027208;28;20460;-74
2021/04/26 08:14:04;;;;;;;9.23;3.63;;;;;;;26.94;29.85;95003.69;5025649;28;20515;-75
2021/04/26 08:16:30;;;;;;;13.65;3.90;;;;;;;27.03;29.99;95010.72;5027319;28;20029;-75
2021/04/26 08:18:55;;;;;;;17.92;4.32;;;;;;;27.01;29.83;95011.25;5024681;28;21013;-75
2021/04/26 08:21:22;;;;;;;13.35;4.55;;;;;;;27.09;29.92;95012.06;5023916;28;20037;-75
2021/04/26 08:23:47;;;;;;;15.90;3.80;;;;;;;27.00;29.77;95011.78;5024961;28;20049;-74
2021/04/26 08:26:13;;;;;;;11.20;3.90;;;;;;;26.99;30.01;95016.50;5026917;28;20076;-75
2021/04/26 08:28:38;;;;;;;14.93;3.70;;;;;;;27.01;30.12;95008.50;5026202;28;20025;-75
2021/04/26 08:31:07;;;;;;;10.18;3.95;;;;;;;27.03;30.38;95005.97;5026688;28;20079;-75
2021/04/26 08:33:33;;;;;;;17.77;3.88;;;;;;;27.07;29.84;95009.13;5025852;28;20050;-75
2021/04/26 08:35:58;;;;;;;13.77;4.13;;;;;;;27.04;30.33;95007.44;5026363;28;20083;-75
2021/04/26 08:38:24;;;;;;;11.82;3.60;;;;;;;27.06;30.28;95017.88;5026378;28;20044;-75
2021/04/26 08:40:49;;;;;;;13.50;3.92;;;;;;;27.09;30.28;95014.78;5026155;28;20036;-75
2021/04/26 08:43:14;;;;;;;15.43;4.50;;;;;;;27.06;29.97;95015.88;5026038;28;20318;-75
2021/04/26 08:45:40;;;;;;;13.32;4.78;;;;;;;27.13;30.32;95017.94;5026210;28;20113;-74
2021/04/26 08:48:06;;;;;;;20.52;4.18;;;;;;;27.12;30.23;95018.47;5024953;28;20034;-75
2021/04/26 08:50:31;;;;;;;12.70;4.25;;;;;;;27.17;30.48;95015.59;5041150;28;20032;-75
2021/04/26 08:52:57;;;;;;;13.98;3.90;;;;;;;27.15;30.06;95028.38;5027560;28;20809;-75
2021/04/26 08:55:22;;;;;;;14.45;3.97;;;;;;;27.08;30.17;95002.34;5025978;28;20428;-75
2021/04/26 08:57:48;;;;;;;13.73;3.90;;;;;;;27.18;30.07;95006.13;5026012;28;20029;-77
2021/04/26 09:00:14;;;;;;;15.30;4.13;;;;;;;27.24;30.00;95014.94;5026853;28;20029;-75
2021/04/26 09:02:53;;;;;;;14.30;4.25;;;;;;;27.19;30.03;95013.06;5026907;28;20034;-76
2021/04/26 09:05:22;;;;;;;13.25;4.10;;;;;;;27.27;30.07;95008.38;5041029;28;20385;-75
2021/04/26 09:07:52;;;;;;;15.30;4.00;;;;;;;27.29;30.02;95016.81;5041872;28;20044;-76
2021/04/26 09:10:36;;;;;;;17.25;4.70;;;;;;;27.08;30.07;94991.38;5041510;28;20033;-75
2021/04/26 09:13:45;;;;;;;11.65;3.80;;;;;;;27.27;30.03;95003.63;5026842;28;20569;-76
2021/04/26 09:16:26;;;;;;;13.15;3.95;;;;;;;27.24;30.12;95009.47;5035887;28;20063;-76
2021/04/26 09:19:01;;;;;;;15.82;4.25;;;;;;;27.31;29.81;95009.53;5041212;28;20022;-76
2021/04/26 09:21:27;;;;;;;11.82;3.40;;;;;;;27.01;30.19;94931.75;5027907;28;20445;-76
2021/04/26 09:24:25;;;;;;;11.65;3.90;;;;;;;27.43;30.04;95005.25;5045201;28;20021;-77
2021/04/26 09:27:09;;;;;;;13.30;3.80;;;;;;;27.17;30.25;94966.25;5022533;28;20026;-77
2021/04/26 09:29:34;;;;;;;11.95;4.28;;;;;;;27.41;29.78;95007.03;5016642;28;20517;-75
2021/04/26 09:32:11;;;;;;;12.13;3.97;;;;;;;27.24;30.10;94970.34;5028526;28;20041;-76
2021/04/26 09:34:47;;;;;;;9.98;4.28;;;;;;;27.42;24.82;94992.78;5027218;28;20432;-79
2021/04/26 09:37:13;;;;;;;7.82;4.18;;;;;;;26.96;24.42;94968.25;5030615;28;20112;-80
2021/04/26 09:40:13;;;;;;;7.43;4.53;;;;;;;26.93;23.99;94963.81;5030227;28;20614;-77
2021/04/26 09:42:55;;;;;;;7.10;4.22;;;;;;;26.65;22.57;94959.47;5027280;28;20025;-79
2021/04/26 09:45:24;;;;;;;8.98;3.90;;;;;;;26.71;21.83;94979.28;5029545;28;20033;-80
2021/04/26 09:48:11;;;;;;;7.35;4.28;;;;;;;26.80;24.34;94983.03;5029225;28;20412;-76
2021/04/26 09:51:02;;;;;;;10.68;4.10;;;;;;;26.78;26.53;94980.09;5031469;28;20032;-82
2021/04/26 09:53:32;;;;;;;9.77;3.92;;;;;;;27.05;26.62;94969.78;5028264;28;20138;-79
2021/04/26 09:56:14;;;;;;;8.88;3.83;;;;;;;27.17;27.00;94971.72;5022435;28;20037;-77
2021/04/26 09:58:44;;;;;;;7.57;3.75;;;;;;;27.27;26.89;94972.75;5028170;28;20021;-85
2021/04/26 10:01:09;;;;;;;10.27;3.97;;;;;;;27.09;27.46;94927.06;5030103;28;20025;-84
2021/04/26 10:03:35;;;;;;;11.55;4.35;;;;;;;27.37;27.58;94957.28;5028997;28;20029;-82
2021/04/26 10:06:01;;;;;;;9.80;3.92;;;;;;;27.15;27.81;94935.88;5047036;28;20404;-86
2021/04/26 10:08:26;;;;;;;8.77;3.28;;;;;;;27.21;27.61;94933.03;5031484;28;20404;-87
2021/04/26 10:10:52;;;;;;;8.07;3.13;;;;;;;27.46;28.08;94954.78;5046366;28;20021;-86
2021/04/26 10:13:20;;;;;;;7.93;3.88;;;;;;;27.43;28.29;94955.16;5031152;28;20033;-84
2021/04/26 10:15:46;;;;;;;9.68;3.60;;;;;;;27.30;28.28;94925.03;5016981;28;20033;-87
2021/04/26 10:18:11;;;;;;;9.20;3.85;;;;;;;27.59;28.62;94956.72;5046845;28;20033;-83
2021/04/26 10:20:41;;;;;;;7.63;3.33;;;;;;;27.59;28.64;94951.97;5018667;28;20021;-89
2021/04/26 10:23:33;;;;;;;7.97;3.47;;;;;;;27.57;28.51;94942.81;5029804;28;20040;-81
2021/04/26 10:25:58;;;;;;;8.90;3.47;;;;;;;27.32;28.44;94895.06;5019294;28;20048;-80
2021/04/26 10:28:32;;;;;;;9.52;3.65;;;;;;;27.20;29.13;94882.91;5013617;28;20025;-83
2021/04/26 10:31:13;;;;;;;10.45;3.50;;;;;;;27.29;28.78;94885.94;5029566;28;20075;-80
2021/04/26 10:34:00;;;;;;;8.63;3.22;;;;;;;27.47;28.80;94911.63;5029423;28;20475;-85
2021/04/26 10:36:45;;;;;;;6.28;2.95;;;;;;;27.44;28.59;94912.72;5024438;28;20048;-82
2021/04/26 10:39:15;;;;;;;6.85;3.53;;;;;;;27.37;28.18;94880.50;5025505;28;20419;-81
2021/04/26 10:41:46;;;;;;;5.25;2.88;;;;;;;27.60;28.45;94889.63;5028862;28;20039;-81
2021/04/26 10:44:35;;;;;;;6.82;3.00;;;;;;;27.41;28.53;94870.66;5030249;28;20468;-79
2021/04/26 10:47:13;;;;;;;6.63;3.03;;;;;;;27.63;28.41;94896.78;5027325;28;20083;-79
2021/04/26 10:49:38;;;;;;;5.60;2.83;;;;;;;27.44;28.41;94863.31;5028526;28;20048;-77
2021/04/26 10:52:27;;;;;;;6.47;3.47;;;;;;;27.68;28.28;94898.63;5027721;28;20025;-82
2021/04/26 10:54:55;;;;;;;7.10;3.25;;;;;;;27.74;28.46;94886.97;5030631;28;20389;-80
2021/04/26 10:57:40;;;;;;;7.07;3.13;;;;;;;27.57;28.20;94855.03;5024625;28;20104;-79
2021/04/26 11:00:27;;;;;;;6.65;3.05;;;;;;;27.87;28.01;94878.59;5023900;28;20053;-75
2021/04/26 11:03:05;;;;;;;7.28;2.88;;;;;;;27.61;28.17;94849.91;5027954;28;20057;-80
2021/04/26 11:05:34;;;;;;;7.28;2.88;;;;;;;27.84;27.82;94878.94;5024030;28;20424;-80
2021/04/26 11:08:14;;;;;;;4.93;2.75;;;;;;;27.87;28.00;94873.09;5027049;28;20498;-79
2021/04/26 11:10:47;;;;;;;;;;;;;;;27.80;28.03;94862.84;5030300;28;20044;-77
2021/04/26 11:13:31;;;;;;;5.72;2.63;;;;;;;27.82;27.92;94865.03;5042250;28;19925;-79
2021/04/26 11:16:06;;;;;;;5.97;3.30;;;;;;;27.94;27.76;94855.94;4967506;28;20045;-73
2021/04/26 11:18:35;;;;;;;8.27;3.03;;;;;;;27.92;27.72;94857.75;5051716;28;20054;-79
2021/04/26 11:21:01;;;;;;;4.75;2.30;;;;;;;27.91;27.92;94868.00;5050365;28;20591;-77
2021/04/26 11:23:44;;;;;;;7.47;3.25;;;;;;;27.94;27.72;94847.69;5052253;28;20037;-78
2021/04/26 11:26:17;;;;;;;6.97;2.70;;;;;;;27.98;27.73;94855.56;5036634;28;20034;-79
2021/04/26 11:29:00;;;;;;;5.53;2.80;;;;;;;27.96;27.34;94853.38;5035649;28;20029;-78
2021/04/26 11:31:41;;;;;;;6.80;2.60;;;;;;;27.98;27.50;94839.84;5040276;28;20032;-77
2021/04/26 11:34:10;;;;;;;5.45;2.53;;;;;;;27.55;27.24;94769.78;5037099;28;20540;-78
2021/04/26 11:36:38;;;;;;;6.28;2.40;;;;;;;27.94;27.36;94825.75;5033370;28;20040;-78
2021/04/26 11:39:07;;;;;;;4.13;2.60;;;;;;;27.99;27.39;94829.59;5034311;28;20104;-78
2021/04/26 11:41:42;;;;;;;;;;;;;;;27.98;27.28;94828.13;5033298;28;20495;-77
2021/04/26 11:44:08;;;;;;;3.78;2.28;;;;;;;28.02;27.05;94818.25;5045455;28;19923;-77
2021/04/26 11:46:34;;;;;;;4.32;2.30;;;;;;;28.06;27.12;94818.66;5002905;28;20033;-77
2021/04/26 11:49:22;;;;;;;5.47;2.80;;;;;;;27.81;26.75;94781.94;5027759;28;20789;-79
2021/04/26 11:51:53;;;;;;;6.32;2.42;;;;;;;28.07;27.07;94814.63;5028638;28;20105;-79
2021/04/26 11:54:21;;;;;;;5.35;2.58;;;;;;;28.05;27.34;94800.69;5028585;28;20073;-75
2021/04/26 11:57:03;;;;;;;6.05;2.47;;;;;;;27.89;27.41;94776.47;5025765;28;20115;-76
2021/04/26 11:59:29;;;;;;;4.65;2.40;;;;;;;27.91;27.17;94769.19;5042226;28;20057;-75
2021/04/26 12:01:54;;;;;;;5.25;2.35;;;;;;;28.20;27.34;94795.25;5026888;28;20023;-77
2021/04/26 12:04:37;;;;;;;4.30;2.25;;;;;;;27.84;27.20;94753.41;5042129;28;20546;-76
2021/04/26 12:07:06;;;;;;;3.97;2.55;;;;;;;28.06;27.35;94780.19;5008875;28;20029;-76
2021/04/26 12:09:32;;;;;;;4.30;2.50;;;;;;;28.20;27.22;94789.78;5024933;28;20025;-74
2021/04/26 12:12:02;;;;;;;4.22;2.60;;;;;;;28.12;27.21;94778.06;5025738;28;20068;-74
2021/04/26 12:14:28;;;;;;;4.53;2.30;;;;;;;27.99;27.00;94752.72;5020532;28;20026;-75
2021/04/26 12:17:15;;;;;;;4.97;2.40;;;;;;;28.24;27.68;94784.66;5024958;28;20026;-75
2021/04/26 12:19:41;;;;;;;5.10;2.30;;;;;;;28.23;27.59;94766.00;5039226;28;20032;-75
2021/04/26 12:22:06;;;;;;;5.20;2.10;;;;;;;28.33;27.27;94770.41;5026123;28;20033;-76
2021/04/26 12:24:32;;;;;;;5.88;2.58;;;;;;;28.28;27.19;94768.53;5026759;28;20389;-76
2021/04/26 12:26:58;;;;;;;4.03;2.20;;;;;;;28.01;27.44;94731.69;5007090;28;20580;-76
2021/04/26 12:29:27;;;;;;;4.85;2.10;;;;;;;28.10;27.12;94725.69;5009367;28;20037;-75
2021/04/26 12:32:12;;;;;;;4.68;2.55;;;;;;;28.22;27.53;94743.28;5023451;28;20028;-75
2021/04/26 12:34:53;;;;;;;3.67;2.33;;;;;;;27.83;27.34;94691.59;5025144;28;20052;-75
2021/04/26 12:37:20;;;;;;;4.78;2.20;;;;;;;28.18;27.24;94753.91;5025802;28;20033;-75
2021/04/26 12:39:46;;;;;;;4.85;2.40;;;;;;;28.20;27.38;94740.34;5009020;28;20021;-75
2021/04/26 12:42:19;;;;;;;4.38;2.45;;;;;;;28.06;27.26;94719.78;5041250;28;20033;-75
2021/04/26 12:44:46;;;;;;;4.07;2.22;;;;;;;28.14;27.29;94709.56;5041922;28;20041;-75
2021/04/26 12:47:18;;;;;;;3.30;2.08;;;;;;;28.16;27.21;94712.53;5010780;28;20026;-77
2021/04/26 12:49:44;;;;;;;3.75;2.50;;;;;;;28.43;27.60;94719.09;5009126;28;20187;-76
2021/04/26 12:52:17;;;;;;;3.55;2.20;;;;;;;28.41;27.22;94710.69;5027342;28;20508;-75
2021/04/26 12:55:03;;;;;;;4.57;2.25;;;;;;;28.29;27.89;94704.09;5041545;28;20035;-75
2021/04/26 12:57:28;;;;;;;5.47;2.15;;;;;;;28.39;27.52;94724.25;5013845;28;20021;-76
2021/04/26 12:59:54;;;;;;;3.72;2.47;;;;;;;28.14;27.81;94693.09;5013268;28;20040;-77
2021/04/26 13:02:23;;;;;;;5.10;2.25;;;;;;;28.35;27.97;94718.38;5012484;28;20048;-73
2021/04/26 13:04:50;;;;;;;5.43;2.65;;;;;;;28.29;27.82;94715.09;5029249;28;20555;-74
2021/04/26 13:07:15;;;;;;;7.38;2.40;;;;;;;28.31;27.95;94698.78;5044853;28;20397;-74
2021/04/26 13:09:41;;;;;;;3.97;2.03;;;;;;;28.06;27.78;94670.38;5008228;28;20028;-74
2021/04/26 13:12:07;;;;;;;4.03;2.30;;;;;;;28.29;27.72;94698.59;5028634;28;20017;-75
2021/04/26 13:14:35;;;;;;;4.93;2.10;;;;;;;28.17;28.12;94697.50;5030727;28;20025;-80
2021/04/26 13:17:08;;;;;;;3.42;2.22;;;;;;;28.21;27.84;94697.88;5031993;28;20028;-81
2021/04/26 13:19:37;;;;;;;3.33;2.10;;;;;;;28.16;28.47;94701.53;5030178;28;20420;-81
2021/04/26 13:22:02;;;;;;;5.05;2.20;;;;;;;28.26;28.04;94688.72;5010072;28;20382;-76
2021/04/26 13:24:31;;;;;;;4.18;2.15;;;;;;;28.03;27.65;94660.50;5012964;28;20032;-77
2021/04/26 13:27:04;;;;;;;3.78;2.17;;;;;;;28.18;27.90;94690.72;5012926;28;20025;-78
2021/04/26 13:29:31;;;;;;;3.50;2.10;;;;;;;28.10;28.33;94681.75;5030025;28;20025;-77
2021/04/26 13:32:01;;;;;;;4.47;2.08;;;;;;;27.98;28.00;94675.13;5045658;28;20022;-78
2021/04/26 13:34:27;;;;;;;6.20;2.78;;;;;;;28.09;27.94;94674.78;5025231;28;20034;-76
2021/04/26 13:36:53;;;;;;;4.75;2.65;;;;;;;28.18;27.73;94687.97;5028444;28;20127;-76
2021/04/26 13:39:19;;;;;;;4.47;2.00;;;;;;;28.09;28.30;94680.28;5029344;28;20726;-76
2021/04/26 13:41:45;;;;;;;5.28;2.05;;;;;;;28.15;28.00;94672.59;5029857;28;20500;-80
2021/04/26 13:44:10;;;;;;;3.60;2.38;;;;;;;28.23;28.09;94684.31;5026822;28;20025;-81
2021/04/26 13:46:36;;;;;;;3.83;2.03;;;;;;;28.33;28.00;94682.50;5029926;28;20033;-76
2021/04/26 13:49:01;;;;;;;3.90;2.10;;;;;;;28.27;28.13;94668.22;5028879;28;20025;-76
2021/04/26 13:51:27;;;;;;;3.40;2.03;;;;;;;28.22;27.96;94676.63;5029039;28;20606;-75
2021/04/26 13:53:53;;;;;;;3.42;2.30;;;;;;;28.22;27.83;94688.38;5028874;28;20029;-75
2021/04/26 13:56:19;;;;;;;3.60;2.20;;;;;;;28.21;27.89;94670.41;5044571;28;20048;-75
2021/04/26 13:58:44;;;;;;;6.32;2.40;;;;;;;28.13;26.25;94658.69;5028895;28;20472;-75
2021/04/26 14:01:10;;;;;;;4.75;2.63;;;;;;;28.12;22.47;94629.78;5027316;28;20032;-75
2021/04/26 14:03:37;;;;;;;4.15;2.78;;;;;;;28.32;22.64;94659.03;5010451;28;20018;-75
2021/04/26 14:06:02;;;;;;;5.38;2.60;;;;;;;28.34;22.34;94661.97;5028488;28;20143;-76
2021/04/26 14:08:28;;;;;;;5.25;3.40;;;;;;;28.29;21.40;94649.16;5028387;28;20029;-73
2021/04/26 14:10:54;;;;;;;6.25;3.03;;;;;;;28.23;21.33;94641.09;5022178;28;20029;-73
2021/04/26 14:13:19;;;;;;;4.57;2.67;;;;;;;28.25;20.57;94637.81;5026923;28;20554;-75
2021/04/26 14:15:45;;;;;;;5.72;3.20;;;;;;;28.09;21.33;94614.38;5025302;28;20026;-74
2021/04/26 14:18:10;;;;;;;6.35;3.05;;;;;;;28.31;21.31;94641.09;5026629;28;20039;-75
2021/04/26 14:20:37;;;;;;;5.25;2.55;;;;;;;27.87;21.67;94609.59;5028250;28;20025;-76
2021/04/26 14:23:03;;;;;;;4.53;2.80;;;;;;;28.22;22.07;94646.41;5028492;28;20048;-74
2021/04/26 14:25:29;;;;;;;4.18;2.50;;;;;;;28.14;23.12;94632.69;5026622;28;20481;-73
2021/04/26 14:27:54;;;;;;;5.43;2.78;;;;;;;28.01;22.08;94602.66;5028626;28;20077;-72
2021/04/26 14:30:20;;;;;;;6.55;2.42;;;;;;;28.11;22.59;94600.84;5027721;28;20571;-72
2021/04/26 14:32:46;;;;;;;5.88;2.83;;;;;;;28.01;22.38;94624.63;5028100;28;20021;-74
2021/04/26 14:35:11;;;;;;;3.85;2.40;;;;;;;28.14;22.14;94627.19;5027452;28;20113;-73
2021/04/26 14:37:37;;;;;;;5.15;2.75;;;;;;;27.88;21.49;94605.56;5043469;28;20028;-74
2021/04/26 14:40:04;;;;;;;6.10;2.50;;;;;;;27.85;21.33;94606.69;5022710;28;20044;-73
2021/04/26 14:42:30;;;;;;;4.70;2.58;;;;;;;27.93;21.41;94623.16;5024742;28;20036;-74
2021/04/26 14:44:55;;;;;;;6.78;2.50;;;;;;;27.77;23.00;94616.91;5028348;28;20100;-75
2021/04/26 14:47:20;;;;;;;5.25;2.63;;;;;;;27.88;23.81;94632.31;5027626;28;20029;-76
2021/04/26 14:49:46;;;;;;;5.13;2.78;;;;;;;27.87;24.10;94623.31;5028035;28;20087;-76
2021/04/26 14:52:11;;;;;;;6.07;2.75;;;;;;;27.91;24.51;94620.94;5029220;28;20025;-75
2021/04/26 14:54:37;;;;;;;4.95;2.58;;;;;;;27.88;24.60;94611.06;5028963;28;20044;-76
2021/04/26 14:57:02;;;;;;;5.32;2.60;;;;;;;27.89;24.55;94607.06;5026901;28;20089;-76
2021/04/26 14:59:28;;;;;;;4.53;2.15;;;;;;;27.88;24.88;94611.06;5027279;28;20034;-76
2021/04/26 15:01:53;;;;;;;4.40;2.20;;;;;;;27.91;25.04;94615.47;5028734;28;20030;-76
2021/04/26 15:04:19;;;;;;;5.70;2.70;;;;;;;27.75;24.70;94592.03;5028512;28;20033;-75
2021/04/26 15:06:44;;;;;;;6.15;2.40;;;;;;;27.86;24.70;94608.16;5028090;28;20033;-76
2021/04/26 15:09:10;;;;;;;5.30;2.38;;;;;;;27.92;24.55;94616.94;5028293;28;20087;-75
2021/04/26 15:11:35;;;;;;;5.40;2.53;;;;;;;27.73;24.63;94578.13;5028374;28;20022;-75
2021/04/26 15:14:01;;;;;;;4.28;2.30;;;;;;;27.92;24.93;94599.72;5025785;28;20461;-75
2021/04/26 15:16:27;;;;;;;4.85;2.65;;;;;;;27.95;24.46;94596.63;5021300;28;20029;-75
2021/04/26 15:18:53;;;;;;;6.05;2.65;;;;;;;27.97;23.88;94596.78;5026462;28;20487;-75
2021/04/26 15:21:19;;;;;;;11.35;2.63;;;;;;;27.97;24.31;94585.81;5027498;28;20040;-76
2021/04/26 15:23:44;;;;;;;4.97;2.40;;;;;;;27.72;23.74;94547.75;5027567;28;20018;-78
2021/04/26 15:26:10;;;;;;;5.78;2.30;;;;;;;27.95;24.50;94580.16;5014256;28;20025;-78
2021/04/26 15:28:36;;;;;;;6.03;2.53;;;;;;;27.77;24.42;94572.25;5028455;28;20029;-76
2021/04/26 15:31:01;;;;;;;4.22;2.47;;;;;;;27.80;24.21;94577.41;5027549;28;20021;-75
2021/04/26 15:33:27;;;;;;;5.85;2.20;;;;;;;28.03;24.28;94567.16;5043112;28;20061;-74
2021/04/26 15:35:52;;;;;;;5.57;2.55;;;;;;;28.23;24.38;94573.75;5028127;28;20056;-75
2021/04/26 15:38:18;;;;;;;6.82;2.40;;;;;;;28.11;24.55;94556.91;5028146;28;20057;-77
2021/04/26 15:40:44;;;;;;;4.35;2.17;;;;;;;28.12;24.10;94566.63;5026125;28;20083;-78
2021/04/26 15:43:10;;;;;;;4.45;1.98;;;;;;;28.21;23.06;94563.31;5026485;28;20504;-78
2021/04/26 15:45:36;;;;;;;7.93;2.30;;;;;;;27.99;22.49;94533.81;5007454;28;20021;-76
2021/04/26 15:48:03;;;;;;;5.07;2.25;;;;;;;28.16;21.77;94558.75;5026752;28;20041;-77
2021/04/26 15:50:29;;;;;;;4.82;2.13;;;;;;;28.23;21.97;94568.97;5037975;28;20474;-78
2021/04/26 15:52:56;;;;;;;4.22;2.28;;;;;;;28.08;22.25;94541.50;5036404;28;20036;-81
2021/04/26 15:55:22;;;;;;;4.85;2.17;;;;;;;28.08;21.93;94552.47;5035115;28;20493;-77
2021/04/26 15:57:48;;;;;;;4.10;2.10;;;;;;;28.11;21.72;94551.41;5026894;28;20037;-76
2021/04/26 16:00:14;;;;;;;2.80;1.73;;;;;;;28.09;21.65;94548.50;5027137;28;20100;-77
2021/04/26 16:02:39;;;;;;;3.38;2.10;;;;;;;28.09;21.75;94548.50;5028097;28;20022;-75
2021/04/26 16:05:05;;;;;;;4.40;1.88;;;;;;;28.11;21.46;94537.69;5026354;28;20028;-76
2021/04/26 16:07:30;;;;;;;3.63;1.77;;;;;;;28.02;21.49;94543.72;5027375;28;20084;-75